WetterOnline ( https://www.wetteronline.de )

Wetter aktuell Frauenau

Aktuelles Wetter: Zwiesel (613m)

6-stündlich | Neueste Meldungen
Ortszeit Temperatur Wetter
Di, 20.08. 14:00 20.9° C leichter Regen
Di, 20.08. 8:00 16.2° C wolkig
Di, 20.08. 2:00 15.5° C leichter Regen
Mo, 19.08. 20:00 19.0° C wolkig
Mo, 19.08. 14:00 19.5° C bewölkt
Mo, 19.08. 8:00 15.9° C Regen
Mo, 19.08. 2:00 16.1° C leicht bewölkt
So, 18.08. 20:00 25.3° C wolkenlos
Ortszeit Temperatur Wetter
Di, 20.08. 17:30 17.9° C bedeckt
Di, 20.08. 17:20 17.9° C bedeckt
Di, 20.08. 17:10 17.8° C Sprühregen
Di, 20.08. 17:00 18.0° C leichter Regen
Di, 20.08. 16:50 18.0° C leichter Regen
Di, 20.08. 16:40 18.1° C leichter Regen
Di, 20.08. 16:30 18.3° C leichter Regen
Di, 20.08. 16:00 18.9° C leichter Regen
Di, 20.08. 15:30 19.7° C leichter Regen
Di, 20.08. 15:00 19.6° C leichter Regen
Di, 20.08. 14:30 19.8° C leichter Regen
Ortszeit Relative Feuchte Sichtweite
Di, 20.08. 14:00 69% 70 km
Di, 20.08. 8:00 94% 45 km
Di, 20.08. 2:00 97% 16 km
Mo, 19.08. 20:00 78% 70 km
Mo, 19.08. 14:00 73% 70 km
Mo, 19.08. 8:00 95% 45 km
Mo, 19.08. 2:00 91% 40 km
So, 18.08. 20:00 53% 70 km
Ortszeit Relative Feuchte Sichtweite
Di, 20.08. 17:30 87% 70 km
Di, 20.08. 17:20 87% -
Di, 20.08. 17:10 89% -
Di, 20.08. 17:00 89% 30 km
Di, 20.08. 16:50 89% -
Di, 20.08. 16:40 86% -
Di, 20.08. 16:30 85% 22 km
Di, 20.08. 16:00 86% 29 km
Di, 20.08. 15:30 81% 30 km
Di, 20.08. 15:00 78% 18 km
Di, 20.08. 14:30 74% 29 km
Ortszeit Niederschlagsmenge Niederschlagsart
Di, 20.08. 14:00 0.1 l/m2 in 6 Std. Regen
Di, 20.08. 8:00 2 l/m2 in 12 Std. Regen
Di, 20.08. 2:00 2 l/m2 in 6 Std. Regen
Mo, 19.08. 20:00 0.1 l/m2 in 12 Std. -
Mo, 19.08. 14:00 0.1 l/m2 in 6 Std. Regen
Mo, 19.08. 8:00 3 l/m2 in 12 Std. Regenschauer
Mo, 19.08. 2:00 0.0 l/m2 in 6 Std. -
So, 18.08. 20:00 0.0 l/m2 in 12 Std. -
Ortszeit Niederschlagsmenge Niederschlagsart
Di, 20.08. 17:30 0.1 l/m2 in 1 Std. Schneeregen
Di, 20.08. 17:20 keine Meldung -
Di, 20.08. 17:10 keine Meldung -
Di, 20.08. 17:00 0.6 l/m2 in 1 Std. Regen
Di, 20.08. 16:50 keine Meldung -
Di, 20.08. 16:40 keine Meldung -
Di, 20.08. 16:30 0.3 l/m2 in 1 Std. -
Di, 20.08. 16:00 0.2 l/m2 in 1 Std. Regen
Di, 20.08. 15:30 0.2 l/m2 in 1 Std. -
Di, 20.08. 15:00 0.2 l/m2 in 1 Std. Regen
Di, 20.08. 14:30 0.1 l/m2 in 1 Std. -
Ortszeit Stärke Spitze Richtung
km/h Bft. km/h Grad Sektor
Di, 20.08. 14:00 11 2 18 250° W
Di, 20.08. 8:00 4 1 14 190° S
Di, 20.08. 2:00 4 1 11 260° W
Mo, 19.08. 20:00 0 0 14 - -
Mo, 19.08. 14:00 7 2 26 230° SW
Mo, 19.08. 8:00 4 1 50 180° S
Mo, 19.08. 2:00 4 1 18 160° S
So, 18.08. 20:00 9 2 33 100° O
Ortszeit Stärke Spitze Richtung
km/h Bft. km/h Grad Sektor
Di, 20.08. 17:30 7 2 14 350° N
Di, 20.08. 17:20 7 2 - 350° N
Di, 20.08. 17:10 7 2 - 350° N
Di, 20.08. 17:00 7 2 19 340° N
Di, 20.08. 16:50 7 2 - 340° N
Di, 20.08. 16:40 7 2 - 350° N
Di, 20.08. 16:30 9 2 19 330° NW
Di, 20.08. 16:00 11 2 18 320° NW
Di, 20.08. 15:30 2 1 6 320° NW
Di, 20.08. 15:00 6 1 20 220° SW
Di, 20.08. 14:30 13 3 20 250° W
Ortszeit Untergrenze Bedeckung Gattung
total tief tief mittel hoch
Di, 20.08. 14:00 1320 m 8/8 7/8 - - -
Di, 20.08. 8:00 2100 m 8/8 2/8 - - -
Di, 20.08. 2:00 3000 m 7/8 7/8 - - -
Mo, 19.08. 20:00 810 m 8/8 3/8 - - -
Mo, 19.08. 14:00 750 m 7/8 7/8 - - -
Mo, 19.08. 8:00 150 m 7/8 7/8 - - -
Mo, 19.08. 2:00 2700 m 4/8 4/8 - - -
So, 18.08. 20:00 - 0/8 0/8 - - -
Ortszeit Bedeckungsgrad in Achtel und Wolkenuntergrenze
Di, 20.08. 17:30 2(810m) 8(1020m) 8(1800m)
Di, 20.08. 17:20 2(810m) 8(1020m) 8(1800m)
Di, 20.08. 17:10 2(630m) 8(960m) 8(1260m)
Di, 20.08. 17:00 7(660m) 7(1140m) 8(1410m)
Di, 20.08. 16:50 7(660m) 7(1140m) 8(1410m)
Di, 20.08. 16:40 1(210m) 7(690m) 8(1440m)
Di, 20.08. 16:30 1(270m) 7(1170m) 8(2400m)
Di, 20.08. 16:00 2(960m) 8(2400m) 8(2400m)
Di, 20.08. 15:30 4(840m) 7(2700m) 8(2700m)
Di, 20.08. 15:00 5(1170m) 7(2700m)
Di, 20.08. 14:30 6(1320m) 6(2100m) 6(2400m)
Ortszeit Luftdruck NN (hPa) Tendenz (hPa in 3 Std.)
Di, 20.08. 14:00 1019 - 0,4
Di, 20.08. 8:00 1021 + 0,1
Di, 20.08. 2:00 1020 - 0,3
Mo, 19.08. 20:00 1018 + 0,2
Mo, 19.08. 14:00 1018 + 0,2
Mo, 19.08. 8:00 1018 + 0,8
Mo, 19.08. 2:00 1014 + 2,4
So, 18.08. 20:00 1008 - 1,5
Ortszeit Luftdruck NN (hPa) Tendenz (hPa in 3 Std.)
Di, 20.08. 17:30 1019 - 0,5
Di, 20.08. 17:20 1019 keine Meldung
Di, 20.08. 17:10 1019 keine Meldung
Di, 20.08. 17:00 1019 - 0,3
Di, 20.08. 16:50 1019 keine Meldung
Di, 20.08. 16:40 1019 keine Meldung
Di, 20.08. 16:30 1020 + 0,2
Di, 20.08. 16:00 1019 - 0,2
Di, 20.08. 15:30 1019 - 0,5
Di, 20.08. 15:00 1019 - 0,5
Di, 20.08. 14:30 1019 - 0,3
Ortszeit Schneehöhe (cm)
Di, 20.08. 14:00 -
Di, 20.08. 8:00 -
Di, 20.08. 2:00 -
Mo, 19.08. 20:00 -
Mo, 19.08. 14:00 -
Mo, 19.08. 8:00 -
Mo, 19.08. 2:00 -
So, 18.08. 20:00 -
Ortszeit Schneehöhe (cm)
Di, 20.08. 17:30 -
Di, 20.08. 17:20 -
Di, 20.08. 17:10 -
Di, 20.08. 17:00 -
Di, 20.08. 16:50 -
Di, 20.08. 16:40 -
Di, 20.08. 16:30 -
Di, 20.08. 16:00 -
Di, 20.08. 15:30 -
Di, 20.08. 15:00 -
Di, 20.08. 14:30 -
Link zu dieser Seite / Seite empfehlen

Das Wetter in ...